Shawboro, North Carolina
Current Conditions -  °F | °C
As of 11:30 AM on Wednesday 22 Oct 2014 (Local Time) from KONX Reporting Station
Overcast Overcast  
Wind Chill: 56°   Ceiling: 1200
Heat Index: 56°   Visibility: 10mi
Dew Point: 49°   Wind: 12mph
Humidity: 79%   Direction: 290°WNW
Pressure: 29.84"   Gusts: 21mph
Location:  36.41°N, 76.09°W
Report Text: KONX 221530Z AUTO 29010G18KT 270V330 10SM OVC012 13/10 A2984 RMK AO2 T01310096
Loading
Personal Weather Stations






























Interactive Weather Map
Tropical Storm Tracking
New forecast layout! Learn more

10-Day Weather Forecast

Advertisements
Track Severe Weather on mobile